createdAt,value
2018-07-26T00:00:43.558Z,1.00
2018-07-26T00:03:16.170Z,1.00
2018-07-26T00:05:48.434Z,1.00
2018-07-26T00:08:21.412Z,1.00
2018-07-26T00:10:53.777Z,1.00
2018-07-26T00:13:25.853Z,1.00
2018-07-26T00:15:57.839Z,1.00
2018-07-26T00:18:29.759Z,1.00
2018-07-26T00:21:01.725Z,1.00
2018-07-26T00:23:34.339Z,1.00
2018-07-26T00:26:07.499Z,1.00
2018-07-26T00:28:40.324Z,1.00
2018-07-26T00:33:43.996Z,1.00
2018-07-26T00:36:16.515Z,1.00
2018-07-26T00:38:48.794Z,1.00
2018-07-26T00:43:52.683Z,1.00
2018-07-26T00:46:25.682Z,1.00
2018-07-26T00:48:58.279Z,1.00
2018-07-26T00:51:30.865Z,1.00
2018-07-26T00:56:34.237Z,1.00
2018-07-26T00:59:07.377Z,1.00
2018-07-26T01:01:40.076Z,1.00
2018-07-26T01:04:12.636Z,1.00
2018-07-26T01:06:45.841Z,1.00
2018-07-26T01:09:18.346Z,1.00
2018-07-26T01:11:50.720Z,1.00
2018-07-26T01:14:23.360Z,1.00
2018-07-26T01:16:56.014Z,1.00
2018-07-26T01:19:28.734Z,1.00
2018-07-26T01:22:01.148Z,1.00
2018-07-26T01:24:33.843Z,1.00
2018-07-26T01:29:37.579Z,1.00
2018-07-26T01:32:10.358Z,1.00
2018-07-26T01:34:43.723Z,1.00
2018-07-26T01:39:46.959Z,1.00
2018-07-26T01:42:19.482Z,1.00
2018-07-26T01:44:51.817Z,1.00
2018-07-26T01:47:23.961Z,1.00
2018-07-26T01:49:56.504Z,1.00
2018-07-26T01:52:28.938Z,1.00
2018-07-26T01:55:01.078Z,1.00
2018-07-26T01:57:33.471Z,1.00
2018-07-26T02:00:06.009Z,1.00
2018-07-26T02:02:38.494Z,1.00
2018-07-26T02:07:42.095Z,1.00
2018-07-26T02:10:14.569Z,1.00
2018-07-26T02:12:46.872Z,1.00
2018-07-26T02:15:19.421Z,1.00
2018-07-26T02:17:51.826Z,1.00
2018-07-26T02:20:24.175Z,1.00
2018-07-26T02:25:27.776Z,1.00
2018-07-26T02:30:32.190Z,1.00
2018-07-26T02:33:04.835Z,1.00
2018-07-26T02:35:37.300Z,1.00
2018-07-26T02:38:10.450Z,1.00
2018-07-26T02:40:42.481Z,1.00
2018-07-26T02:43:14.764Z,1.00
2018-07-26T02:45:47.329Z,1.00
2018-07-26T02:48:19.957Z,1.00
2018-07-26T02:50:52.278Z,1.00
2018-07-26T02:53:24.874Z,1.00
2018-07-26T02:55:57.328Z,1.00
2018-07-26T02:58:29.888Z,1.00
2018-07-26T03:01:02.454Z,1.00
2018-07-26T03:03:34.842Z,1.00
2018-07-26T03:06:07.316Z,1.00
2018-07-26T03:08:39.892Z,1.00
2018-07-26T03:11:12.334Z,1.00
2018-07-26T03:13:44.347Z,1.00
2018-07-26T03:16:16.901Z,1.00
2018-07-26T03:18:49.190Z,1.00
2018-07-26T03:21:21.575Z,1.00
2018-07-26T03:26:25.043Z,1.00
2018-07-26T03:28:57.630Z,1.00
2018-07-26T03:31:30.589Z,1.00
2018-07-26T03:34:02.967Z,1.00
2018-07-26T03:36:34.817Z,1.00
2018-07-26T03:39:09.179Z,1.00
2018-07-26T03:41:41.543Z,1.00
2018-07-26T03:44:13.702Z,1.00
2018-07-26T03:46:46.477Z,1.00
2018-07-26T03:49:18.705Z,1.00
2018-07-26T03:54:22.994Z,1.00
2018-07-26T03:56:55.041Z,1.00
2018-07-26T03:59:27.888Z,1.00
2018-07-26T04:02:00.954Z,1.00
2018-07-26T04:04:33.426Z,1.00
2018-07-26T04:07:06.304Z,1.00
2018-07-26T04:12:10.062Z,1.00
2018-07-26T04:14:41.971Z,1.30
2018-07-26T04:17:13.846Z,1.80
2018-07-26T04:19:46.135Z,1.90
2018-07-26T04:22:18.767Z,2.20
2018-07-26T04:24:51.089Z,2.50
2018-07-26T04:27:23.407Z,2.70
2018-07-26T04:29:55.665Z,3.10
2018-07-26T04:32:28.501Z,2.70
2018-07-26T04:35:00.519Z,3.00
2018-07-26T04:37:33.826Z,3.10
2018-07-26T04:40:06.344Z,3.10
2018-07-26T04:42:38.610Z,3.60
2018-07-26T04:45:11.054Z,3.50
2018-07-26T04:47:43.272Z,4.20
2018-07-26T04:50:15.833Z,3.60
2018-07-26T04:52:48.041Z,3.80
2018-07-26T04:55:20.545Z,4.00
2018-07-26T04:57:53.345Z,4.20
2018-07-26T05:00:25.873Z,4.70
2018-07-26T05:02:58.042Z,4.80
2018-07-26T05:05:30.360Z,5.10
2018-07-26T05:08:03.865Z,5.50
2018-07-26T05:10:36.538Z,5.60
2018-07-26T05:13:08.680Z,5.30
2018-07-26T05:15:41.357Z,5.60
2018-07-26T05:18:13.692Z,5.70
2018-07-26T05:20:46.417Z,6.20
2018-07-26T05:23:18.832Z,6.10
2018-07-26T05:25:51.329Z,6.30
2018-07-26T05:28:24.033Z,6.50
2018-07-26T05:30:56.615Z,6.00
2018-07-26T05:33:29.013Z,6.20
2018-07-26T05:36:01.317Z,6.60
2018-07-26T05:38:33.762Z,6.10
2018-07-26T05:41:06.283Z,6.20
2018-07-26T05:43:38.780Z,6.40
2018-07-26T05:46:11.178Z,5.90
2018-07-26T05:48:43.520Z,5.90
2018-07-26T05:51:15.871Z,5.70
2018-07-26T05:53:47.961Z,5.80
2018-07-26T05:56:20.173Z,6.00
2018-07-26T05:58:52.527Z,5.70
2018-07-26T06:01:25.267Z,5.90
2018-07-26T06:03:57.993Z,5.90
2018-07-26T06:06:30.231Z,6.30
2018-07-26T06:09:02.892Z,6.10
2018-07-26T06:11:35.454Z,6.30
2018-07-26T06:14:08.272Z,6.50
2018-07-26T06:16:40.895Z,6.30
2018-07-26T06:19:13.134Z,6.00
2018-07-26T06:21:45.654Z,6.30
2018-07-26T06:24:18.139Z,6.30
2018-07-26T06:26:50.453Z,6.80
2018-07-26T06:29:22.831Z,6.60
2018-07-26T06:31:55.189Z,6.70
2018-07-26T06:34:27.414Z,6.60
2018-07-26T06:36:59.992Z,6.90
2018-07-26T06:39:32.338Z,7.50
2018-07-26T06:42:05.009Z,7.50
2018-07-26T06:44:37.479Z,7.70
2018-07-26T06:47:10.048Z,7.70
2018-07-26T06:49:42.342Z,7.90
2018-07-26T06:52:14.941Z,8.20
2018-07-26T06:54:47.400Z,8.40
2018-07-26T06:57:20.033Z,8.60
2018-07-26T06:59:52.612Z,8.90
2018-07-26T07:02:25.398Z,9.50
2018-07-26T07:04:57.907Z,9.60
2018-07-26T07:07:30.437Z,10.30
2018-07-26T07:10:03.053Z,10.40
2018-07-26T07:12:35.289Z,11.00
2018-07-26T07:17:38.906Z,11.40
2018-07-26T07:20:11.669Z,11.90
2018-07-26T07:22:44.446Z,11.90
2018-07-26T07:25:16.801Z,12.60
2018-07-26T07:27:49.272Z,12.50
2018-07-26T07:32:52.900Z,13.20
2018-07-26T07:35:25.345Z,13.20
2018-07-26T07:37:57.642Z,13.90
2018-07-26T07:40:30.046Z,14.00
2018-07-26T07:43:02.404Z,13.80
2018-07-26T07:45:34.583Z,13.70
2018-07-26T07:48:06.919Z,14.30
2018-07-26T07:50:39.543Z,14.20
2018-07-26T07:53:11.713Z,14.30
2018-07-26T07:55:44.223Z,14.30
2018-07-26T07:58:16.456Z,14.40
2018-07-26T08:00:48.642Z,14.80
2018-07-26T08:03:20.975Z,15.20
2018-07-26T08:05:53.382Z,15.10
2018-07-26T08:08:26.193Z,15.80
2018-07-26T08:10:58.699Z,16.00
2018-07-26T08:13:30.929Z,16.20
2018-07-26T08:16:03.565Z,15.90
2018-07-26T08:18:35.901Z,16.40
2018-07-26T08:21:08.620Z,16.20
2018-07-26T08:23:41.225Z,16.60
2018-07-26T08:26:13.479Z,16.70
2018-07-26T08:28:45.790Z,17.10
2018-07-26T08:31:17.967Z,17.70
2018-07-26T08:33:50.325Z,18.00
2018-07-26T08:36:22.690Z,18.00
2018-07-26T08:38:55.089Z,18.50
2018-07-26T08:41:27.471Z,19.00
2018-07-26T08:43:59.804Z,19.30
2018-07-26T08:46:32.198Z,19.00
2018-07-26T08:49:04.377Z,19.30
2018-07-26T08:51:36.957Z,18.90
2018-07-26T08:54:09.641Z,19.70
2018-07-26T08:56:41.909Z,19.90
2018-07-26T08:59:14.318Z,19.80
2018-07-26T09:01:46.703Z,19.80
2018-07-26T09:04:19.798Z,20.40
2018-07-26T09:06:52.226Z,19.90
2018-07-26T09:09:24.986Z,20.30
2018-07-26T09:11:57.565Z,20.60
2018-07-26T09:14:29.736Z,20.80
2018-07-26T09:17:02.103Z,20.80
2018-07-26T09:19:35.726Z,21.40
2018-07-26T09:22:08.357Z,20.80
2018-07-26T09:24:43.027Z,21.50
2018-07-26T09:27:16.316Z,21.10
2018-07-26T09:29:48.683Z,21.50
2018-07-26T09:32:21.388Z,21.40
2018-07-26T09:34:53.766Z,21.20
2018-07-26T09:37:26.170Z,22.40
2018-07-26T09:39:58.570Z,22.40
2018-07-26T09:42:30.926Z,22.90
2018-07-26T09:45:03.180Z,22.90
2018-07-26T09:47:35.711Z,23.20
2018-07-26T09:50:08.756Z,23.70
2018-07-26T09:52:41.183Z,23.60
2018-07-26T09:55:13.677Z,24.00
2018-07-26T09:57:45.841Z,23.70
2018-07-26T10:02:26.226Z,24.30
2018-07-26T10:04:58.774Z,23.90
2018-07-26T10:07:31.176Z,24.30
2018-07-26T10:10:03.403Z,24.00
2018-07-26T10:12:35.878Z,23.80
2018-07-26T10:15:08.148Z,24.30
2018-07-26T10:17:40.389Z,23.80
2018-07-26T10:20:13.242Z,24.70
2018-07-26T10:22:45.719Z,24.60
2018-07-26T10:25:18.095Z,24.90
2018-07-26T10:27:50.306Z,24.90
2018-07-26T10:30:22.780Z,24.90
2018-07-26T10:32:55.206Z,24.90
2018-07-26T10:35:27.618Z,25.10
2018-07-26T10:38:00.379Z,24.90
2018-07-26T10:40:32.695Z,24.80
2018-07-26T10:43:05.215Z,24.90
2018-07-26T10:45:37.385Z,24.80
2018-07-26T10:48:09.761Z,25.10
2018-07-26T10:50:42.089Z,25.00
2018-07-26T10:53:14.931Z,24.90
2018-07-26T10:55:47.523Z,24.70
2018-07-26T10:58:20.251Z,25.10
2018-07-26T11:00:52.817Z,25.20
2018-07-26T11:03:25.436Z,25.30
2018-07-26T11:05:57.926Z,25.60
2018-07-26T11:08:30.568Z,25.60
2018-07-26T11:11:03.854Z,26.10
2018-07-26T11:13:36.759Z,26.30
2018-07-26T11:16:09.298Z,26.00
2018-07-26T11:18:41.503Z,26.50
2018-07-26T11:21:13.898Z,26.30
2018-07-26T11:23:46.447Z,26.90
2018-07-26T11:26:18.816Z,27.10
2018-07-26T11:28:51.194Z,27.10
2018-07-26T11:31:23.592Z,27.70
2018-07-26T11:33:55.668Z,27.70
2018-07-26T11:36:27.863Z,27.60
2018-07-26T11:39:00.299Z,27.60
2018-07-26T11:41:32.807Z,27.60
2018-07-26T11:44:05.337Z,27.60
2018-07-26T11:46:38.149Z,28.80
2018-07-26T11:49:10.577Z,28.30
2018-07-26T11:51:43.086Z,28.40
2018-07-26T11:54:15.469Z,28.80
2018-07-26T11:56:47.911Z,29.70
2018-07-26T11:59:20.206Z,29.50
2018-07-26T12:01:52.783Z,29.70
2018-07-26T12:04:25.190Z,30.00
2018-07-26T12:06:57.523Z,30.70
2018-07-26T12:09:29.920Z,31.10
2018-07-26T12:12:02.261Z,31.00
2018-07-26T12:14:34.881Z,31.40
2018-07-26T12:17:07.435Z,30.90
2018-07-26T12:19:40.319Z,31.40
2018-07-26T12:22:13.196Z,31.50
2018-07-26T12:24:46.194Z,31.60
2018-07-26T12:27:18.595Z,32.30
2018-07-26T12:29:51.094Z,32.50
2018-07-26T12:32:23.731Z,32.70
2018-07-26T12:34:56.216Z,32.40
2018-07-26T12:37:29.321Z,33.50
2018-07-26T12:40:01.989Z,33.80
2018-07-26T12:42:34.567Z,33.90
2018-07-26T12:45:07.369Z,34.10
2018-07-26T12:47:39.778Z,33.80
2018-07-26T12:50:12.155Z,34.80
2018-07-26T12:52:44.504Z,35.30
2018-07-26T12:55:17.113Z,34.80
2018-07-26T12:57:49.714Z,34.80
2018-07-26T13:00:22.398Z,35.00
2018-07-26T13:02:54.871Z,35.30
2018-07-26T13:05:27.401Z,35.60
2018-07-26T13:07:59.901Z,35.60
2018-07-26T13:10:32.523Z,35.60
2018-07-26T13:13:04.880Z,36.50
2018-07-26T13:15:37.050Z,36.50
2018-07-26T13:18:09.556Z,36.50
2018-07-26T13:20:42.044Z,36.70
2018-07-26T13:23:14.652Z,36.80
2018-07-26T13:25:46.979Z,36.50
2018-07-26T13:28:19.234Z,36.60
2018-07-26T13:30:51.330Z,37.10
2018-07-26T13:33:23.915Z,37.00
2018-07-26T13:35:56.560Z,35.90
2018-07-26T13:38:28.807Z,35.70
2018-07-26T13:41:01.092Z,36.00
2018-07-26T13:43:34.736Z,34.90
2018-07-26T13:46:07.339Z,34.80
2018-07-26T13:48:40.071Z,34.40
2018-07-26T13:51:12.438Z,34.40
2018-07-26T13:53:44.699Z,34.00
2018-07-26T13:56:18.141Z,34.20
2018-07-26T13:58:50.644Z,34.30
2018-07-26T14:01:23.016Z,34.00
2018-07-26T14:03:55.202Z,33.50
2018-07-26T14:06:27.520Z,32.50
2018-07-26T14:11:31.445Z,33.00
2018-07-26T14:14:03.882Z,31.70
2018-07-26T14:16:36.482Z,30.50
2018-07-26T14:19:09.661Z,30.10
2018-07-26T14:21:42.028Z,29.80
2018-07-26T14:24:19.292Z,29.70
2018-07-26T14:26:53.570Z,28.80
2018-07-26T14:29:26.119Z,29.00
2018-07-26T14:31:58.463Z,28.30
2018-07-26T14:34:31.072Z,28.10
2018-07-26T14:37:03.537Z,27.10
2018-07-26T14:39:36.261Z,26.70
2018-07-26T14:42:08.666Z,25.90
2018-07-26T14:44:40.823Z,25.40
2018-07-26T14:47:13.358Z,26.20
2018-07-26T14:49:45.936Z,26.10
2018-07-26T14:52:18.298Z,25.60
2018-07-26T14:54:50.798Z,26.10
2018-07-26T14:57:23.176Z,25.70
2018-07-26T14:59:55.539Z,24.70
2018-07-26T15:02:27.859Z,24.80
2018-07-26T15:05:00.350Z,25.10
2018-07-26T15:07:32.600Z,24.80
2018-07-26T15:10:05.482Z,25.20
2018-07-26T15:12:38.072Z,23.80
2018-07-26T15:15:10.805Z,24.10
2018-07-26T15:17:43.268Z,23.70
2018-07-26T15:20:16.301Z,23.60
2018-07-26T15:22:48.647Z,21.90
2018-07-26T15:25:27.341Z,20.50
2018-07-26T15:27:59.642Z,19.70
2018-07-26T15:30:32.071Z,18.50
2018-07-26T15:33:04.264Z,14.90
2018-07-26T15:35:36.647Z,13.10
2018-07-26T15:38:09.045Z,9.20
2018-07-26T15:40:41.201Z,7.00
2018-07-26T15:43:13.776Z,4.60
2018-07-26T15:45:46.235Z,1.10
2018-07-26T15:48:18.524Z,1.00
2018-07-26T15:50:50.764Z,1.00
2018-07-26T15:53:23.084Z,1.00
2018-07-26T15:55:55.266Z,1.00
2018-07-26T16:00:59.211Z,1.00
2018-07-26T16:03:31.579Z,1.00
2018-07-26T16:06:03.902Z,1.00
2018-07-26T16:08:36.713Z,1.00
2018-07-26T16:11:09.069Z,1.00
2018-07-26T16:13:41.779Z,1.00
2018-07-26T16:16:13.913Z,1.00
2018-07-26T16:18:46.492Z,1.00
2018-07-26T16:21:18.960Z,1.00
2018-07-26T16:23:51.376Z,1.00
2018-07-26T16:26:24.144Z,1.00
2018-07-26T16:28:56.944Z,1.00
2018-07-26T16:31:29.311Z,1.00
2018-07-26T16:34:02.016Z,1.00
2018-07-26T16:36:34.491Z,1.00
2018-07-26T16:39:09.589Z,1.00
2018-07-26T16:41:42.272Z,1.00
2018-07-26T16:44:14.687Z,1.00
2018-07-26T16:46:47.234Z,1.00
2018-07-26T16:49:19.930Z,1.00
2018-07-26T16:51:52.452Z,1.00
2018-07-26T16:54:25.038Z,1.00
2018-07-26T16:56:57.512Z,1.00
2018-07-26T16:59:30.148Z,1.00
2018-07-26T17:02:02.694Z,1.00
2018-07-26T17:04:35.094Z,1.00
2018-07-26T17:07:07.469Z,1.00
2018-07-26T17:09:39.775Z,1.00
2018-07-26T17:12:12.013Z,1.00
2018-07-26T17:14:44.281Z,1.00
2018-07-26T17:17:16.714Z,1.00
2018-07-26T17:19:49.226Z,1.00
2018-07-26T17:22:21.858Z,1.00
2018-07-26T17:24:54.909Z,1.00
2018-07-26T17:27:27.565Z,1.00
2018-07-26T17:29:59.753Z,1.00
2018-07-26T17:32:32.420Z,1.00
2018-07-26T17:35:05.361Z,1.00
2018-07-26T17:37:37.531Z,1.00
2018-07-26T17:40:09.841Z,1.00
2018-07-26T17:42:42.305Z,1.00
2018-07-26T17:45:14.896Z,1.00
2018-07-26T17:47:47.432Z,1.00
2018-07-26T17:50:19.902Z,1.00
2018-07-26T17:52:52.675Z,1.00
2018-07-26T17:55:25.380Z,1.00
2018-07-26T17:57:57.852Z,1.00
2018-07-26T18:00:30.516Z,1.00
2018-07-26T18:03:03.094Z,1.00
2018-07-26T18:05:35.603Z,1.00
2018-07-26T18:08:07.806Z,1.00
2018-07-26T18:10:41.136Z,1.00
2018-07-26T18:13:13.540Z,1.00
2018-07-26T18:15:45.674Z,1.00
2018-07-26T18:18:18.225Z,1.00
2018-07-26T18:20:51.410Z,1.00
2018-07-26T18:23:23.737Z,1.00
2018-07-26T18:25:56.529Z,1.00
2018-07-26T18:28:29.520Z,1.00
2018-07-26T18:31:01.947Z,1.00
2018-07-26T18:33:34.425Z,1.00
2018-07-26T18:36:06.872Z,1.00
2018-07-26T18:38:39.500Z,1.00
2018-07-26T18:41:11.950Z,1.00
2018-07-26T18:43:44.297Z,1.00
2018-07-26T18:46:17.043Z,1.00
2018-07-26T18:48:49.543Z,1.00
2018-07-26T18:51:22.282Z,1.00
2018-07-26T18:53:55.041Z,1.00
2018-07-26T18:56:27.662Z,1.00
2018-07-26T18:59:00.223Z,1.00
2018-07-26T19:01:32.623Z,1.00
2018-07-26T19:04:05.231Z,1.00
2018-07-26T19:06:37.743Z,1.00
2018-07-26T19:09:13.341Z,1.00
2018-07-26T19:11:45.786Z,1.00
2018-07-26T19:14:18.146Z,1.00
2018-07-26T19:16:50.566Z,1.00
2018-07-26T19:19:22.977Z,1.00
2018-07-26T19:21:55.291Z,1.00
2018-07-26T19:24:27.733Z,1.00
2018-07-26T19:27:00.313Z,1.00
2018-07-26T19:29:33.216Z,1.00
2018-07-26T19:34:37.097Z,1.00
2018-07-26T19:37:11.566Z,1.00
2018-07-26T19:39:43.738Z,1.00
2018-07-26T19:42:16.010Z,1.00
2018-07-26T19:44:48.343Z,1.00
2018-07-26T19:47:21.162Z,1.00
2018-07-26T19:49:53.587Z,1.00
2018-07-26T19:52:25.815Z,1.00
2018-07-26T19:54:58.391Z,1.00
2018-07-26T19:57:30.764Z,1.00
2018-07-26T20:00:03.254Z,1.00
2018-07-26T20:02:35.789Z,1.00
2018-07-26T20:05:08.844Z,1.00
2018-07-26T20:07:41.503Z,1.00
2018-07-26T20:10:14.939Z,1.00
2018-07-26T20:15:18.857Z,1.00
2018-07-26T20:20:22.278Z,1.00
2018-07-26T20:22:54.790Z,1.00
2018-07-26T20:25:27.132Z,1.00
2018-07-26T20:30:31.203Z,1.00
2018-07-26T20:33:03.542Z,1.00
2018-07-26T20:35:36.188Z,1.00
2018-07-26T20:38:08.689Z,1.00
2018-07-26T20:40:41.110Z,1.00
2018-07-26T20:43:13.406Z,1.00
2018-07-26T20:45:45.800Z,1.00
2018-07-26T20:48:18.295Z,1.00
2018-07-26T20:50:51.133Z,1.00
2018-07-26T20:53:24.366Z,1.00
2018-07-26T20:55:57.090Z,1.00
2018-07-26T20:58:29.571Z,1.00
2018-07-26T21:01:02.124Z,1.00
2018-07-26T21:03:34.706Z,1.00
2018-07-26T21:06:07.303Z,1.00
2018-07-26T21:08:39.814Z,1.00
2018-07-26T21:11:12.234Z,1.00
2018-07-26T21:13:44.956Z,1.00
2018-07-26T21:16:17.433Z,1.00
2018-07-26T21:18:49.988Z,1.00
2018-07-26T21:23:54.346Z,1.00
2018-07-26T21:26:27.111Z,1.00
2018-07-26T21:28:59.757Z,1.00
2018-07-26T21:31:33.580Z,1.00
2018-07-26T21:34:06.308Z,1.00
2018-07-26T21:39:16.635Z,1.00
2018-07-26T21:41:49.145Z,1.00
2018-07-26T21:44:21.541Z,1.00
2018-07-26T21:46:54.079Z,1.00
2018-07-26T21:49:26.743Z,1.00
2018-07-26T21:51:59.458Z,1.00
2018-07-26T21:54:32.033Z,1.00
2018-07-26T21:57:04.393Z,1.00
2018-07-26T21:59:36.830Z,1.00
2018-07-26T22:02:09.206Z,1.00
2018-07-26T22:07:13.664Z,1.00
2018-07-26T22:09:46.445Z,1.00
2018-07-26T22:12:19.023Z,1.00
2018-07-26T22:14:51.467Z,1.00
2018-07-26T22:17:23.746Z,1.00
2018-07-26T22:19:56.156Z,1.00
2018-07-26T22:22:28.358Z,1.00
2018-07-26T22:25:01.070Z,1.00
2018-07-26T22:27:33.425Z,1.00
2018-07-26T22:30:05.818Z,1.00
2018-07-26T22:35:09.810Z,1.00
2018-07-26T22:37:42.032Z,1.00
2018-07-26T22:40:14.551Z,1.00
2018-07-26T22:42:46.695Z,1.00
2018-07-26T22:45:18.888Z,1.00
2018-07-26T22:47:51.264Z,1.00
2018-07-26T22:50:24.047Z,1.00
2018-07-26T22:52:56.711Z,1.00
2018-07-26T22:55:29.189Z,1.00
2018-07-26T22:58:01.603Z,1.00
2018-07-26T23:05:36.829Z,1.00
2018-07-26T23:08:09.193Z,1.00
2018-07-26T23:10:41.705Z,1.00
2018-07-26T23:13:14.293Z,1.00
2018-07-26T23:15:46.505Z,1.00
2018-07-26T23:18:19.332Z,1.00
2018-07-26T23:20:51.536Z,1.00
2018-07-26T23:23:23.867Z,1.00
2018-07-26T23:25:56.295Z,1.00
2018-07-26T23:28:29.018Z,1.00
2018-07-26T23:31:01.538Z,1.00
2018-07-26T23:33:34.267Z,1.00
2018-07-26T23:36:06.748Z,1.00
2018-07-26T23:38:39.367Z,1.00
2018-07-26T23:41:11.597Z,1.00
2018-07-26T23:43:44.293Z,1.00
2018-07-26T23:46:16.667Z,1.00
2018-07-26T23:51:20.981Z,1.00
2018-07-26T23:53:53.326Z,1.00
2018-07-26T23:56:25.941Z,1.00
